Flight Track Log - Related Links

Times and Time Zones

All times are in EDT time to prevent confusion due to time zone crossing. See the FLG3777 flight status page for this flight to view local times or setup timezone preferences in your user account.

Time Position Orientation Groundspeed Altitude Reporting Facility
EDT Latitude Longitude Course Direction KTS MPH feet Rate Location/Type
Mon 01:57:39 PM 41.9667 -87.8667 171° South 174 200 2,300  Level Chicago TRACON
Mon 01:58:39 PM 41.9333 -87.8167 132° Southeast 222 255 4,200 1,500 Climbing Chicago TRACON
Mon 02:00:00 PM 41.6333 -87.5012 153° Southeast  Level Estimated
Mon 02:00:00 PM 41.8156 -87.8048 154° Southeast  Level FlightAware Approximate
Mon 02:01:00 PM 41.5459 -87.4005 159° South  Level Estimated
Mon 02:01:55 PM 41.6914 -87.7867 159° South 280 322 8,700  Level Chicago Center
Mon 02:02:00 PM 41.4585 -87.3001 171° South  Level Estimated
Mon 02:03:00 PM 41.3857 -87.2167 171° South  Level Estimated
Mon 02:03:00 PM 41.6120 -87.6969 140° Southeast  Level FlightAware Approximate
Mon 02:03:59 PM 41.5444 -87.7372 140° Southeast 291 335 14,300  Level Chicago Center
Mon 02:05:01 PM 41.4847 -87.6561 134° Southeast 302 348 15,000 823 Climbing Chicago Center
Mon 02:06:03 PM 41.3789 -87.5750 150° Southeast 362 417 16,000 1,084 Climbing Chicago Center
Mon 02:07:00 PM 41.1872 -87.5103 159° South  Level FlightAware Approximate
Mon 02:08:00 PM 41.2163 -87.4515 150° Southeast  Level FlightAware Approximate
Mon 02:08:48 PM 41.1097 -87.3619 150° Southeast 403 464 19,100  Level Indianapolis Center
Mon 02:09:50 PM 41.0100 -87.2856 150° Southeast 414 476 20,100 940 Climbing Indianapolis Center
Mon 02:10:11 PM 40.9875 -87.2669 148° Southeast 416 479 20,400 1,117 Climbing Chicago Center
Mon 02:12:15 PM 40.7664 -87.0956 150° Southeast 420 483 22,800 839 Climbing Chicago Center
Mon 02:13:17 PM 40.6683 -87.0192 149° Southeast 425 489 23,000 73 Climbing Chicago Center
Mon 02:14:59 PM 40.4983 -86.8875 149° Southeast 439 505 23,000  Level Indianapolis Center
Mon 02:15:21 PM 40.4569 -86.8578 151° Southeast 439 505 23,000  Level Chicago Center
Mon 02:17:02 PM 40.2708 -86.7131 149° Southeast 433 498 23,000  Level Indianapolis Center
Mon 02:17:25 PM 40.2308 -86.6839 151° Southeast 431 496 23,000 -212 Level Chicago Center
Mon 02:18:27 PM 40.1275 -86.6064 150° Southeast 428 493 22,700 -594 Descending Chicago Center
Mon 02:19:06 PM 40.0644 -86.5567 149° Southeast 431 496 22,000 -1,200 Descending Indianapolis Center
Mon 02:20:07 PM 39.9608 -86.4786 150° Southeast 432 497 20,700 -1,268 Descending Indianapolis Center
Mon 02:21:09 PM 39.8628 -86.4036 150° Southeast 416 479 19,400 -1,403 Descending Indianapolis Center
Mon 02:22:11 PM 39.7861 -86.2972 133° Southeast 386 444 17,800 -1,403 Descending Indianapolis Center
Mon 02:23:13 PM 39.7458 -86.1719 113° Southeast 376 433 16,500 -1,220 Descending Indianapolis Center
Mon 02:24:14 PM 39.7078 -86.0531 113° Southeast 361 415 15,300 -1,220 Descending Indianapolis Center
Mon 02:25:16 PM 39.6625 -85.9175 113° Southeast 345 397 14,000 -1,113 Descending Indianapolis Center
Mon 02:26:18 PM 39.6236 -85.8011 113° Southeast 350 403 13,000 -968 Descending Indianapolis Center
Mon 02:27:20 PM 39.5839 -85.6828 114° Southeast 357 411 12,000 -645 Descending Indianapolis Center
Mon 02:29:24 PM 39.5061 -85.4614 114° Southeast 339 390 11,000 -243 Descending Indianapolis Center
Mon 02:31:00 PM 39.4453 -85.3453 126° Southeast  Level FlightAware Approximate
Mon 02:31:27 PM 39.3856 -85.2442 126° Southeast 342 394 11,000  Level Indianapolis Center
Mon 02:33:31 PM 39.2744 -85.0436 126° Southeast 341 392 11,000 -65 Level Indianapolis Center
Mon 02:34:33 PM 39.2206 -84.9472 126° Southeast 333 383 10,800 -432 Descending Indianapolis Center
Mon 02:35:36 PM 39.1500 -84.8333 129° Southeast 343 395 10,100 -439 Descending Cincinnati TRACON
Mon 02:36:36 PM 39.0833 -84.7833 150° Southeast 252 290 9,900 -1,350 Descending Cincinnati TRACON
Mon 02:37:36 PM 39.0167 -84.7833 180° South 258 297 7,400 -1,797 Descending Cincinnati TRACON
Mon 02:39:43 PM 38.8914 -84.7781 178° South 201 231 4,300 -1,245 Descending Indianapolis Center
Mon 02:41:37 PM 38.9000 -84.6833 83° East 196 226 2,400 -655 Descending Cincinnati TRACON
Mon 02:42:37 PM 38.9500 -84.6667 15° North 189 217 2,400  Level Cincinnati TRACON

Login

Don't have an account? Register now (free) for customized features, flight alerts, and more!